Sullivan City, Texas
Current Conditions -  °F | °C
As of 7:53 AM on Thursday 29 Jan 2015 (Local Time) from KMFE Reporting Station
Moderate Fog Moderate Fog  
Wind Chill: 60°   Ceiling: 200
Heat Index: 60°   Visibility: 0.25mi
Dew Point: 59°   Wind: 6mph
Humidity: 96%   Direction: 140°SE
Pressure: 30.17"   Gusts: NA
Location:  26.28°N, 98.56°W
Report Text: KMFE 291353Z 14005KT 1/4SM FG VV002 16/15 A3017 RMK AO2 SLP216 T01560150
Loading
Personal Weather Stations






























Interactive Weather Map New forecast layout! Learn more

10-Day Weather Forecast

Advertisements
Track Severe Weather on mobile